createdAt,value
2023-04-09T00:00:54.558Z,0.00
2023-04-09T00:01:54.551Z,0.00
2023-04-09T00:02:54.611Z,0.00
2023-04-09T00:03:54.509Z,0.00
2023-04-09T00:04:54.451Z,0.00
2023-04-09T00:05:54.425Z,0.00
2023-04-09T00:06:54.403Z,0.00
2023-04-09T00:07:54.381Z,0.00
2023-04-09T00:08:54.513Z,0.00
2023-04-09T00:09:54.324Z,0.00
2023-04-09T00:10:54.297Z,0.00
2023-04-09T00:11:54.272Z,0.00
2023-04-09T00:12:54.277Z,0.00
2023-04-09T00:13:54.227Z,0.00
2023-04-09T00:14:54.188Z,0.00
2023-04-09T00:15:54.226Z,0.00
2023-04-09T00:16:54.146Z,0.00
2023-04-09T00:17:54.168Z,0.00
2023-04-09T00:18:54.229Z,0.00
2023-04-09T00:19:54.073Z,0.00
2023-04-09T00:20:54.042Z,0.00
2023-04-09T00:21:54.025Z,0.00
2023-04-09T00:22:54.011Z,0.00
2023-04-09T00:23:53.987Z,0.00
2023-04-09T00:24:53.940Z,0.00
2023-04-09T00:25:53.921Z,0.00
2023-04-09T00:26:53.891Z,0.00
2023-04-09T00:27:53.870Z,0.00
2023-04-09T00:28:53.955Z,0.00
2023-04-09T00:29:53.824Z,0.00
2023-04-09T00:30:53.786Z,0.00
2023-04-09T00:31:53.806Z,0.00
2023-04-09T00:32:53.800Z,0.00
2023-04-09T00:33:53.714Z,0.00
2023-04-09T00:34:53.684Z,0.00
2023-04-09T00:35:53.693Z,0.00
2023-04-09T00:36:53.641Z,0.00
2023-04-09T00:37:53.613Z,0.00
2023-04-09T00:38:53.776Z,0.00
2023-04-09T00:39:53.567Z,0.00
2023-04-09T00:40:53.531Z,0.00
2023-04-09T00:41:53.508Z,0.00
2023-04-09T00:42:53.478Z,0.00
2023-04-09T00:43:53.468Z,0.00
2023-04-09T00:44:53.451Z,0.00
2023-04-09T00:45:53.436Z,0.00
2023-04-09T00:46:53.375Z,0.00
2023-04-09T00:47:53.454Z,0.00
2023-04-09T00:48:53.519Z,0.00
2023-04-09T00:49:53.335Z,0.00
2023-04-09T00:50:53.273Z,0.00
2023-04-09T00:51:53.260Z,0.00
2023-04-09T00:52:53.231Z,0.00
2023-04-09T00:53:53.201Z,0.00
2023-04-09T00:54:53.184Z,0.00
2023-04-09T00:55:53.155Z,0.00
2023-04-09T00:56:53.129Z,0.00
2023-04-09T00:57:53.099Z,0.00
2023-04-09T00:58:53.222Z,0.00
2023-04-09T00:59:53.043Z,0.00
2023-04-09T01:00:53.076Z,0.00
2023-04-09T01:01:53.035Z,0.00
2023-04-09T01:02:53.138Z,0.00
2023-04-09T01:03:52.983Z,0.00
2023-04-09T01:04:52.918Z,0.00
2023-04-09T01:05:52.894Z,0.00
2023-04-09T01:06:52.856Z,0.00
2023-04-09T01:07:52.843Z,0.00
2023-04-09T01:08:52.941Z,0.00
2023-04-09T01:09:52.784Z,0.00
2023-04-09T01:10:52.759Z,0.00
2023-04-09T01:11:52.739Z,0.00
2023-04-09T01:12:52.700Z,0.00
2023-04-09T01:13:52.681Z,0.00
2023-04-09T01:14:52.652Z,0.00
2023-04-09T01:15:52.628Z,0.00
2023-04-09T01:16:52.643Z,0.00
2023-04-09T01:17:52.637Z,0.00
2023-04-09T01:18:52.674Z,0.00
2023-04-09T01:19:52.532Z,0.00
2023-04-09T01:20:52.500Z,0.00
2023-04-09T01:21:52.484Z,0.00
2023-04-09T01:22:52.447Z,0.00
2023-04-09T01:23:52.437Z,0.00
2023-04-09T01:24:52.395Z,0.00
2023-04-09T01:25:52.376Z,0.00
2023-04-09T01:26:52.341Z,0.00
2023-04-09T01:27:52.325Z,0.00
2023-04-09T01:28:52.393Z,0.00
2023-04-09T01:29:52.269Z,0.00
2023-04-09T01:30:52.290Z,0.00
2023-04-09T01:31:52.228Z,0.00
2023-04-09T01:32:52.299Z,0.00
2023-04-09T01:33:52.175Z,0.00
2023-04-09T01:34:52.143Z,0.00
2023-04-09T01:35:52.136Z,0.00
2023-04-09T01:36:52.085Z,0.00
2023-04-09T01:37:52.060Z,0.00
2023-04-09T01:38:52.294Z,0.00
2023-04-09T01:39:52.013Z,0.00
2023-04-09T01:40:51.982Z,0.00
2023-04-09T01:41:51.956Z,0.00
2023-04-09T01:42:51.945Z,0.00
2023-04-09T01:43:51.907Z,0.00
2023-04-09T01:44:51.877Z,0.00
2023-04-09T01:45:51.872Z,0.00
2023-04-09T01:46:51.868Z,0.00
2023-04-09T01:47:51.828Z,0.00
2023-04-09T01:48:52.022Z,0.00
2023-04-09T01:49:51.752Z,0.00
2023-04-09T01:50:51.729Z,0.00
2023-04-09T01:51:51.700Z,0.00
2023-04-09T01:52:51.669Z,0.00
2023-04-09T01:53:51.661Z,0.00
2023-04-09T01:54:51.621Z,0.00
2023-04-09T01:55:51.613Z,0.00
2023-04-09T01:56:51.565Z,0.00
2023-04-09T01:57:51.541Z,0.00
2023-04-09T01:58:51.703Z,0.00
2023-04-09T01:59:51.497Z,0.00
2023-04-09T02:00:51.460Z,0.00
2023-04-09T02:01:51.549Z,0.00
2023-04-09T02:02:51.596Z,0.00
2023-04-09T02:03:51.667Z,0.00
2023-04-09T02:04:51.381Z,0.00
2023-04-09T02:05:51.354Z,0.00
2023-04-09T02:06:51.322Z,0.00
2023-04-09T02:07:51.289Z,0.00
2023-04-09T02:08:51.546Z,0.00
2023-04-09T02:09:51.226Z,0.00
2023-04-09T02:10:51.208Z,0.00
2023-04-09T02:11:51.182Z,0.00
2023-04-09T02:12:51.153Z,0.00
2023-04-09T02:13:51.126Z,0.00
2023-04-09T02:14:51.110Z,0.00
2023-04-09T02:15:51.152Z,0.00
2023-04-09T02:16:51.055Z,0.00
2023-04-09T02:17:51.043Z,0.00
2023-04-09T02:18:51.246Z,0.00
2023-04-09T02:19:50.971Z,0.00
2023-04-09T02:20:50.970Z,0.00
2023-04-09T02:21:50.917Z,0.00
2023-04-09T02:22:50.899Z,0.00
2023-04-09T02:23:50.882Z,0.00
2023-04-09T02:24:50.846Z,0.00
2023-04-09T02:25:50.810Z,0.00
2023-04-09T02:26:50.795Z,0.00
2023-04-09T02:27:50.775Z,0.00
2023-04-09T02:28:51.018Z,0.00
2023-04-09T02:29:50.708Z,0.00
2023-04-09T02:30:50.740Z,0.00
2023-04-09T02:31:50.660Z,0.00
2023-04-09T02:32:50.692Z,0.00
2023-04-09T02:33:50.603Z,0.00
2023-04-09T02:34:50.582Z,0.00
2023-04-09T02:35:50.626Z,0.00
2023-04-09T02:36:50.552Z,0.00
2023-04-09T02:37:50.500Z,0.00
2023-04-09T02:38:50.790Z,0.00
2023-04-09T02:39:50.452Z,0.00
2023-04-09T02:40:50.435Z,0.00
2023-04-09T02:41:50.402Z,0.00
2023-04-09T02:42:50.377Z,0.00
2023-04-09T02:43:50.343Z,0.00
2023-04-09T02:44:50.334Z,0.00
2023-04-09T02:45:50.289Z,0.00
2023-04-09T02:46:50.284Z,0.00
2023-04-09T02:47:50.245Z,0.00
2023-04-09T02:48:50.504Z,0.00
2023-04-09T02:49:50.194Z,0.00
2023-04-09T02:50:50.167Z,0.00
2023-04-09T02:51:50.134Z,0.00
2023-04-09T02:52:50.142Z,0.00
2023-04-09T02:53:50.082Z,0.00
2023-04-09T02:54:50.059Z,0.00
2023-04-09T02:55:50.040Z,0.00
2023-04-09T02:56:50.027Z,0.00
2023-04-09T02:57:49.978Z,0.00
2023-04-09T02:58:50.127Z,0.00
2023-04-09T02:59:49.928Z,0.00
2023-04-09T03:00:49.903Z,0.00
2023-04-09T03:01:49.939Z,0.00
2023-04-09T03:02:49.937Z,0.00
2023-04-09T03:03:49.901Z,0.00
2023-04-09T03:04:49.796Z,0.00
2023-04-09T03:05:49.767Z,0.00
2023-04-09T03:06:49.755Z,0.00
2023-04-09T03:07:49.734Z,0.00
2023-04-09T03:08:49.865Z,0.00
2023-04-09T03:09:49.664Z,0.00
2023-04-09T03:10:49.656Z,0.00
2023-04-09T03:11:49.617Z,0.00
2023-04-09T03:12:49.589Z,0.00
2023-04-09T03:13:49.557Z,0.00
2023-04-09T03:14:49.553Z,0.00
2023-04-09T03:15:49.577Z,0.00
2023-04-09T03:16:49.483Z,0.00
2023-04-09T03:17:49.514Z,0.00
2023-04-09T03:18:49.677Z,0.00
2023-04-09T03:19:49.404Z,0.00
2023-04-09T03:20:49.370Z,0.00
2023-04-09T03:21:49.376Z,0.00
2023-04-09T03:22:49.331Z,0.00
2023-04-09T03:23:49.295Z,0.00
2023-04-09T03:24:49.297Z,0.00
2023-04-09T03:25:49.242Z,0.00
2023-04-09T03:26:49.234Z,0.00
2023-04-09T03:27:49.186Z,0.00
2023-04-09T03:28:49.194Z,0.00
2023-04-09T03:29:49.131Z,0.00
2023-04-09T03:30:49.126Z,0.00
2023-04-09T03:31:49.084Z,0.00
2023-04-09T03:32:49.109Z,0.00
2023-04-09T03:33:49.040Z,0.00
2023-04-09T03:34:49.013Z,0.00
2023-04-09T03:35:49.001Z,0.00
2023-04-09T03:36:48.962Z,0.00
2023-04-09T03:37:48.940Z,0.00
2023-04-09T03:38:48.929Z,0.00
2023-04-09T03:39:48.870Z,0.00
2023-04-09T03:40:48.876Z,0.00
2023-04-09T03:41:48.824Z,0.00
2023-04-09T03:42:48.798Z,0.00
2023-04-09T03:43:48.770Z,0.00
2023-04-09T03:44:48.753Z,0.00
2023-04-09T03:45:48.717Z,0.00
2023-04-09T03:46:48.771Z,0.00
2023-04-09T03:47:48.683Z,0.00
2023-04-09T03:48:48.643Z,0.00
2023-04-09T03:49:48.615Z,0.00
2023-04-09T03:50:48.600Z,0.00
2023-04-09T03:51:48.558Z,0.00
2023-04-09T03:52:48.539Z,0.00
2023-04-09T03:53:48.514Z,0.00
2023-04-09T03:54:48.486Z,0.00
2023-04-09T03:55:48.455Z,0.00
2023-04-09T03:56:48.458Z,0.00
2023-04-09T03:57:48.399Z,0.00
2023-04-09T03:58:48.380Z,0.00
2023-04-09T03:59:48.342Z,4.00
2023-04-09T04:00:48.320Z,4.00
2023-04-09T04:01:48.383Z,4.00
2023-04-09T04:02:48.405Z,4.00
2023-04-09T04:03:48.362Z,4.00
2023-04-09T04:04:48.346Z,4.00
2023-04-09T04:05:48.184Z,4.00
2023-04-09T04:06:48.174Z,0.00
2023-04-09T04:07:48.129Z,0.00
2023-04-09T04:08:48.122Z,0.00
2023-04-09T04:09:48.095Z,0.00
2023-04-09T04:10:48.057Z,0.00
2023-04-09T04:11:48.019Z,0.00
2023-04-09T04:12:48.081Z,0.00
2023-04-09T04:13:48.001Z,0.00
2023-04-09T04:14:47.952Z,0.00
2023-04-09T04:15:47.931Z,0.00
2023-04-09T04:16:47.893Z,0.00
2023-04-09T04:17:47.902Z,0.00
2023-04-09T04:18:47.851Z,0.00
2023-04-09T04:19:47.823Z,0.00
2023-04-09T04:20:47.807Z,0.00
2023-04-09T04:21:47.764Z,0.00
2023-04-09T04:22:47.737Z,0.00
2023-04-09T04:23:47.713Z,0.00
2023-04-09T04:24:47.684Z,0.00
2023-04-09T04:25:47.658Z,0.00
2023-04-09T04:26:47.630Z,0.00
2023-04-09T04:27:47.599Z,0.00
2023-04-09T04:28:47.603Z,0.00
2023-04-09T04:29:47.549Z,4.00
2023-04-09T04:30:47.523Z,0.00
2023-04-09T04:31:47.569Z,0.00
2023-04-09T04:32:47.524Z,4.00
2023-04-09T04:33:47.459Z,4.00
2023-04-09T04:34:47.427Z,0.00
2023-04-09T04:35:47.394Z,4.00
2023-04-09T04:36:47.366Z,0.00
2023-04-09T04:37:47.341Z,4.00
2023-04-09T04:38:47.308Z,4.00
2023-04-09T04:39:47.286Z,4.00
2023-04-09T04:40:47.262Z,4.00
2023-04-09T04:41:47.237Z,8.00
2023-04-09T04:42:47.221Z,4.00
2023-04-09T04:43:47.177Z,8.00
2023-04-09T04:44:47.178Z,8.00
2023-04-09T04:45:47.187Z,8.00
2023-04-09T04:46:47.110Z,8.00
2023-04-09T04:47:47.114Z,12.00
2023-04-09T04:48:47.044Z,12.00
2023-04-09T04:49:47.023Z,12.00
2023-04-09T04:50:47.001Z,16.00
2023-04-09T04:51:46.973Z,16.00
2023-04-09T04:52:46.946Z,16.00
2023-04-09T04:53:46.911Z,20.00
2023-04-09T04:54:46.892Z,20.00
2023-04-09T04:55:46.868Z,24.00
2023-04-09T04:56:46.850Z,20.00
2023-04-09T04:57:46.806Z,24.00
2023-04-09T04:58:46.782Z,24.00
2023-04-09T04:59:46.754Z,28.00
2023-04-09T05:00:46.798Z,28.00
2023-04-09T05:01:46.708Z,32.00
2023-04-09T05:02:46.788Z,32.00
2023-04-09T05:03:46.761Z,36.00
2023-04-09T05:04:46.632Z,36.00
2023-04-09T05:05:46.601Z,36.00
2023-04-09T05:06:46.574Z,40.00
2023-04-09T05:07:46.539Z,44.00
2023-04-09T05:08:46.519Z,48.00
2023-04-09T05:09:46.511Z,48.00
2023-04-09T05:10:46.467Z,52.00
2023-04-09T05:11:46.444Z,52.00
2023-04-09T05:12:46.418Z,56.00
2023-04-09T05:13:46.379Z,56.00
2023-04-09T05:14:46.363Z,60.00
2023-04-09T05:15:46.331Z,60.00
2023-04-09T05:16:46.362Z,64.00
2023-04-09T05:17:46.286Z,68.00
2023-04-09T05:18:46.250Z,72.00
2023-04-09T05:19:46.221Z,72.00
2023-04-09T05:20:46.195Z,76.00
2023-04-09T05:21:47.232Z,84.00
2023-04-09T05:22:46.145Z,88.00
2023-04-09T05:23:46.116Z,88.00
2023-04-09T05:24:46.086Z,88.00
2023-04-09T05:25:46.066Z,92.00
2023-04-09T05:26:46.039Z,92.00
2023-04-09T05:27:46.043Z,96.00
2023-04-09T05:28:45.983Z,96.00
2023-04-09T05:29:45.959Z,100.00
2023-04-09T05:30:45.964Z,100.00
2023-04-09T05:31:45.904Z,104.00
2023-04-09T05:32:45.912Z,108.00
2023-04-09T05:33:45.850Z,112.00
2023-04-09T05:34:45.829Z,112.00
2023-04-09T05:35:45.820Z,116.00
2023-04-09T05:36:45.788Z,116.00
2023-04-09T05:37:45.752Z,120.00
2023-04-09T05:38:45.728Z,120.00
2023-04-09T05:39:45.700Z,124.00
2023-04-09T05:40:45.667Z,128.00
2023-04-09T05:41:45.636Z,128.00
2023-04-09T05:42:45.616Z,132.00
2023-04-09T05:43:45.591Z,136.00
2023-04-09T05:44:45.572Z,140.00
2023-04-09T05:45:45.608Z,144.00
2023-04-09T05:46:45.513Z,144.00
2023-04-09T05:47:45.515Z,144.00
2023-04-09T05:48:45.491Z,148.00
2023-04-09T05:49:45.433Z,148.00
2023-04-09T05:50:54.575Z,152.00
2023-04-09T05:51:45.384Z,156.00
2023-04-09T05:52:45.353Z,156.00
2023-04-09T05:53:45.322Z,156.00
2023-04-09T05:54:45.312Z,164.00
2023-04-09T05:55:45.271Z,160.00
2023-04-09T05:56:45.255Z,164.00
2023-04-09T05:57:45.214Z,168.00
2023-04-09T05:58:45.202Z,168.00
2023-04-09T05:59:45.166Z,172.00
2023-04-09T06:00:45.138Z,176.00
2023-04-09T06:01:45.109Z,176.00
2023-04-09T06:02:45.190Z,184.00
2023-04-09T06:03:45.232Z,188.00
2023-04-09T06:04:45.085Z,184.00
2023-04-09T06:05:45.004Z,188.00
2023-04-09T06:06:44.986Z,192.00
2023-04-09T06:07:44.950Z,196.00
2023-04-09T06:08:44.951Z,196.00
2023-04-09T06:09:44.900Z,196.00
2023-04-09T06:10:44.879Z,196.00
2023-04-09T06:11:44.865Z,204.00
2023-04-09T06:12:44.829Z,204.00
2023-04-09T06:13:44.811Z,208.00
2023-04-09T06:14:44.769Z,208.00
2023-04-09T06:15:44.781Z,212.00
2023-04-09T06:16:44.728Z,212.00
2023-04-09T06:17:44.715Z,216.00
2023-04-09T06:18:44.661Z,220.00
2023-04-09T06:19:44.642Z,224.00
2023-04-09T06:20:44.625Z,224.00
2023-04-09T06:21:44.608Z,228.00
2023-04-09T06:22:44.552Z,228.00
2023-04-09T06:23:44.533Z,232.00
2023-04-09T06:24:44.499Z,236.00
2023-04-09T06:25:44.478Z,236.00
2023-04-09T06:26:44.454Z,236.00
2023-04-09T06:27:44.422Z,240.00
2023-04-09T06:28:44.398Z,240.00
2023-04-09T06:29:44.376Z,244.00
2023-04-09T06:30:44.456Z,252.00
2023-04-09T06:31:44.320Z,256.00
2023-04-09T06:32:53.859Z,260.00
2023-04-09T06:33:44.259Z,260.00
2023-04-09T06:34:44.250Z,264.00
2023-04-09T06:35:44.226Z,272.00
2023-04-09T06:36:44.206Z,276.00
2023-04-09T06:37:44.169Z,276.00
2023-04-09T06:38:44.130Z,284.00
2023-04-09T06:39:53.954Z,288.00
2023-04-09T06:40:44.082Z,288.00
2023-04-09T06:41:44.061Z,296.00
2023-04-09T06:42:44.028Z,300.00
2023-04-09T06:43:43.999Z,308.00
2023-04-09T06:44:43.987Z,308.00
2023-04-09T06:45:43.948Z,316.00
2023-04-09T06:46:43.931Z,320.00
2023-04-09T06:47:43.914Z,320.00
2023-04-09T06:48:43.866Z,324.00
2023-04-09T06:49:43.845Z,332.00
2023-04-09T06:50:43.812Z,340.00
2023-04-09T06:51:43.784Z,344.00
2023-04-09T06:52:43.827Z,348.00
2023-04-09T06:53:43.817Z,356.00
2023-04-09T06:54:43.739Z,364.00
2023-04-09T06:55:43.678Z,372.00
2023-04-09T06:56:43.751Z,376.00
2023-04-09T06:57:43.716Z,388.00
2023-04-09T06:58:43.604Z,396.00
2023-04-09T06:59:43.579Z,404.00
2023-04-09T07:00:43.547Z,412.00
2023-04-09T07:01:43.640Z,420.00
2023-04-09T07:02:43.750Z,432.00
2023-04-09T07:03:43.582Z,440.00
2023-04-09T07:04:43.648Z,448.00
2023-04-09T07:05:43.432Z,456.00
2023-04-09T07:06:43.393Z,464.00
2023-04-09T07:07:43.372Z,472.00
2023-04-09T07:08:43.394Z,480.00
2023-04-09T07:09:43.316Z,488.00
2023-04-09T07:10:43.303Z,500.00
2023-04-09T07:11:43.275Z,512.00
2023-04-09T07:12:43.237Z,532.00
2023-04-09T07:13:43.218Z,552.00
2023-04-09T07:14:43.186Z,572.00
2023-04-09T07:15:43.245Z,592.00
2023-04-09T07:16:43.139Z,616.00
2023-04-09T07:17:43.115Z,632.00
2023-04-09T07:18:43.084Z,652.00
2023-04-09T07:19:43.057Z,672.00
2023-04-09T07:20:43.037Z,696.00
2023-04-09T07:21:43.030Z,716.00
2023-04-09T07:22:42.988Z,736.00
2023-04-09T07:23:43.110Z,748.00
2023-04-09T07:24:42.950Z,764.00
2023-04-09T07:25:42.901Z,772.00
2023-04-09T07:26:42.879Z,788.00
2023-04-09T07:27:42.855Z,800.00
2023-04-09T07:28:42.823Z,808.00
2023-04-09T07:29:42.804Z,816.00
2023-04-09T07:30:42.772Z,824.00
2023-04-09T07:31:42.789Z,832.00
2023-04-09T07:32:42.792Z,848.00
2023-04-09T07:33:42.696Z,856.00
2023-04-09T07:34:42.668Z,860.00
2023-04-09T07:35:42.656Z,872.00
2023-04-09T07:36:42.934Z,888.00
2023-04-09T07:37:42.592Z,900.00
2023-04-09T07:38:42.561Z,900.00
2023-04-09T07:39:42.542Z,912.00
2023-04-09T07:40:42.533Z,924.00
2023-04-09T07:41:42.491Z,948.00
2023-04-09T07:42:42.464Z,964.00
2023-04-09T07:43:42.444Z,968.00
2023-04-09T07:44:42.410Z,980.00
2023-04-09T07:45:42.400Z,1000.00
2023-04-09T07:46:42.431Z,1024.00
2023-04-09T07:47:42.373Z,1032.00
2023-04-09T07:48:42.304Z,1044.00
2023-04-09T07:49:42.291Z,1060.00
2023-04-09T07:50:42.256Z,1072.00
2023-04-09T07:51:42.237Z,1088.00
2023-04-09T07:52:42.206Z,1100.00
2023-04-09T07:53:42.198Z,1116.00
2023-04-09T07:54:42.158Z,1128.00
2023-04-09T07:55:42.141Z,1148.00
2023-04-09T07:56:42.141Z,1148.00
2023-04-09T07:57:42.085Z,1156.00
2023-04-09T07:58:42.054Z,1172.00
2023-04-09T07:59:42.035Z,1188.00
2023-04-09T08:00:42.006Z,1196.00
2023-04-09T08:01:42.034Z,1212.00
2023-04-09T08:02:42.287Z,1224.00
2023-04-09T08:03:42.053Z,1232.00
2023-04-09T08:04:42.116Z,1248.00
2023-04-09T08:05:41.889Z,1260.00
2023-04-09T08:06:41.881Z,1268.00
2023-04-09T08:07:41.835Z,1284.00
2023-04-09T08:08:41.819Z,1288.00
2023-04-09T08:09:41.783Z,1300.00
2023-04-09T08:10:41.758Z,1316.00
2023-04-09T08:11:41.733Z,1332.00
2023-04-09T08:12:41.740Z,1344.00
2023-04-09T08:13:41.700Z,1360.00
2023-04-09T08:14:41.670Z,1376.00
2023-04-09T08:15:41.630Z,1380.00
2023-04-09T08:16:41.647Z,1392.00
2023-04-09T08:17:41.631Z,1396.00
2023-04-09T08:18:41.556Z,1412.00
2023-04-09T08:19:42.228Z,1420.00
2023-04-09T08:20:41.504Z,1432.00
2023-04-09T08:21:41.482Z,1452.00
2023-04-09T08:22:41.463Z,1468.00
2023-04-09T08:23:41.439Z,1484.00
2023-04-09T08:24:41.406Z,1476.00
2023-04-09T08:25:41.384Z,1488.00
2023-04-09T08:26:41.366Z,1512.00
2023-04-09T08:27:41.349Z,1512.00
2023-04-09T08:28:41.329Z,1524.00
2023-04-09T08:29:41.286Z,1548.00
2023-04-09T08:30:41.261Z,1556.00
2023-04-09T08:31:41.266Z,1556.00
2023-04-09T08:32:41.251Z,1568.00
2023-04-09T08:33:41.196Z,1572.00
2023-04-09T08:34:41.160Z,1596.00
2023-04-09T08:35:41.135Z,1612.00
2023-04-09T08:36:41.151Z,1616.00
2023-04-09T08:37:41.092Z,1624.00
2023-04-09T08:38:41.062Z,1636.00
2023-04-09T08:39:41.048Z,1628.00
2023-04-09T08:40:41.014Z,1640.00
2023-04-09T08:41:40.996Z,1652.00
2023-04-09T08:42:40.964Z,1668.00
2023-04-09T08:43:56.906Z,1676.00
2023-04-09T08:44:40.945Z,1668.00
2023-04-09T08:45:40.918Z,1664.00
2023-04-09T08:46:40.868Z,1684.00
2023-04-09T08:47:40.869Z,1680.00
2023-04-09T08:48:40.903Z,1684.00
2023-04-09T08:49:40.805Z,1692.00
2023-04-09T08:50:40.774Z,1692.00
2023-04-09T08:51:40.752Z,1700.00
2023-04-09T08:52:40.715Z,1700.00
2023-04-09T08:53:40.699Z,1696.00
2023-04-09T08:54:40.697Z,1712.00
2023-04-09T08:55:40.653Z,1712.00
2023-04-09T08:56:40.624Z,1704.00
2023-04-09T08:57:40.608Z,1708.00
2023-04-09T08:58:40.576Z,1696.00
2023-04-09T08:59:40.553Z,1688.00
2023-04-09T09:00:40.548Z,1656.00
2023-04-09T09:01:40.614Z,1652.00
2023-04-09T09:02:40.631Z,1660.00
2023-04-09T09:03:40.546Z,1668.00
2023-04-09T09:04:40.439Z,1664.00
2023-04-09T09:05:40.431Z,1656.00
2023-04-09T09:06:40.394Z,1664.00
2023-04-09T09:07:40.379Z,1680.00
2023-04-09T09:08:40.336Z,1680.00
2023-04-09T09:09:40.310Z,1648.00
2023-04-09T09:10:40.282Z,1660.00
2023-04-09T09:11:40.279Z,1676.00
2023-04-09T09:12:40.230Z,1680.00
2023-04-09T09:13:40.253Z,1648.00
2023-04-09T09:14:40.191Z,1668.00
2023-04-09T09:15:40.165Z,1708.00
2023-04-09T09:16:40.347Z,1712.00
2023-04-09T09:17:40.133Z,1704.00
2023-04-09T09:18:40.096Z,1724.00
2023-04-09T09:19:40.073Z,1740.00
2023-04-09T09:20:40.045Z,1728.00
2023-04-09T09:21:40.040Z,1728.00
2023-04-09T09:22:39.995Z,1740.00
2023-04-09T09:23:39.975Z,1744.00
2023-04-09T09:24:39.951Z,1764.00
2023-04-09T09:25:39.930Z,1784.00
2023-04-09T09:26:39.903Z,1800.00
2023-04-09T09:27:39.879Z,1772.00
2023-04-09T09:28:39.854Z,1788.00
2023-04-09T09:29:39.836Z,1808.00
2023-04-09T09:30:39.820Z,1800.00
2023-04-09T09:31:39.791Z,1792.00
2023-04-09T09:32:39.807Z,1792.00
2023-04-09T09:33:39.737Z,1772.00
2023-04-09T09:34:39.717Z,1792.00
2023-04-09T09:35:39.711Z,1796.00
2023-04-09T09:36:39.673Z,1808.00
2023-04-09T09:37:39.645Z,1812.00
2023-04-09T09:38:39.620Z,1816.00
2023-04-09T09:39:39.602Z,1800.00
2023-04-09T09:40:39.577Z,1800.00
2023-04-09T09:41:39.563Z,1804.00
2023-04-09T09:42:39.547Z,1824.00
2023-04-09T09:43:39.520Z,1832.00
2023-04-09T09:44:39.483Z,1844.00
2023-04-09T09:45:39.459Z,1820.00
2023-04-09T09:46:39.558Z,1828.00
2023-04-09T09:47:39.421Z,1740.00
2023-04-09T09:48:39.405Z,1824.00
2023-04-09T09:49:39.375Z,1844.00
2023-04-09T09:50:39.340Z,1844.00
2023-04-09T09:51:39.327Z,1864.00
2023-04-09T09:52:39.296Z,1884.00
2023-04-09T09:53:39.285Z,560.00
2023-04-09T09:54:39.247Z,620.00
2023-04-09T09:55:39.231Z,816.00
2023-04-09T09:56:39.202Z,1996.00
2023-04-09T09:57:39.179Z,2080.00
2023-04-09T09:58:39.163Z,2128.00
2023-04-09T09:59:39.134Z,2088.00
2023-04-09T10:00:39.115Z,2100.00
2023-04-09T10:01:39.143Z,784.00
2023-04-09T10:02:39.130Z,680.00
2023-04-09T10:03:39.049Z,664.00
2023-04-09T10:04:39.089Z,812.00
2023-04-09T10:05:38.997Z,1704.00
2023-04-09T10:06:38.983Z,2080.00
2023-04-09T10:07:38.955Z,2188.00
2023-04-09T10:08:38.920Z,2168.00
2023-04-09T10:09:38.900Z,2208.00
2023-04-09T10:10:38.877Z,2192.00
2023-04-09T10:11:38.853Z,2196.00
2023-04-09T10:12:38.834Z,824.00
2023-04-09T10:13:38.813Z,756.00
2023-04-09T10:14:38.776Z,744.00
2023-04-09T10:15:38.825Z,888.00
2023-04-09T10:16:38.742Z,996.00
2023-04-09T10:17:38.907Z,2108.00
2023-04-09T10:18:38.681Z,2272.00
2023-04-09T10:19:38.671Z,2328.00
2023-04-09T10:20:38.650Z,1240.00
2023-04-09T10:21:38.802Z,2116.00
2023-04-09T10:22:38.593Z,1560.00
2023-04-09T10:23:38.579Z,2112.00
2023-04-09T10:24:38.553Z,2132.00
2023-04-09T10:25:38.533Z,2112.00
2023-04-09T10:26:38.505Z,2092.00
2023-04-09T10:27:38.483Z,1960.00
2023-04-09T10:28:38.459Z,1224.00
2023-04-09T10:29:38.431Z,1016.00
2023-04-09T10:30:38.416Z,1164.00
2023-04-09T10:31:38.461Z,1928.00
2023-04-09T10:32:38.381Z,2012.00
2023-04-09T10:33:38.336Z,1048.00
2023-04-09T10:34:38.312Z,776.00
2023-04-09T10:35:38.313Z,652.00
2023-04-09T10:36:38.313Z,900.00
2023-04-09T10:37:38.242Z,1184.00
2023-04-09T10:38:38.226Z,812.00
2023-04-09T10:39:38.197Z,828.00
2023-04-09T10:40:38.181Z,1540.00
2023-04-09T10:41:38.158Z,1700.00
2023-04-09T10:42:38.132Z,2156.00
2023-04-09T10:43:38.110Z,2180.00
2023-04-09T10:44:38.099Z,2164.00
2023-04-09T10:45:38.059Z,1304.00
2023-04-09T10:46:38.088Z,2076.00
2023-04-09T10:47:38.044Z,856.00
2023-04-09T10:48:38.007Z,744.00
2023-04-09T10:49:37.970Z,808.00
2023-04-09T10:50:37.946Z,972.00
2023-04-09T10:51:37.921Z,2088.00
2023-04-09T10:52:37.927Z,2124.00
2023-04-09T10:53:37.876Z,2144.00
2023-04-09T10:54:37.859Z,2100.00
2023-04-09T10:55:37.854Z,2092.00
2023-04-09T10:56:37.816Z,2096.00
2023-04-09T10:57:37.789Z,2112.00
2023-04-09T10:58:37.771Z,2148.00
2023-04-09T10:59:37.737Z,852.00
2023-04-09T11:00:37.720Z,752.00
2023-04-09T11:01:37.851Z,740.00
2023-04-09T11:02:37.923Z,720.00
2023-04-09T11:03:37.676Z,776.00
2023-04-09T11:04:37.783Z,868.00
2023-04-09T11:05:37.610Z,1272.00
2023-04-09T11:06:37.577Z,752.00
2023-04-09T11:07:37.556Z,752.00
2023-04-09T11:08:37.563Z,2004.00
2023-04-09T11:09:37.503Z,2100.00
2023-04-09T11:10:37.495Z,2128.00
2023-04-09T11:11:37.464Z,2144.00
2023-04-09T11:12:37.448Z,2132.00
2023-04-09T11:13:37.412Z,2164.00
2023-04-09T11:14:37.396Z,2124.00
2023-04-09T11:15:37.372Z,2148.00
2023-04-09T11:16:37.383Z,2128.00
2023-04-09T11:17:37.405Z,2164.00
2023-04-09T11:18:37.510Z,1964.00
2023-04-09T11:19:37.286Z,1072.00
2023-04-09T11:20:37.266Z,940.00
2023-04-09T11:21:37.232Z,1364.00
2023-04-09T11:22:37.214Z,2232.00
2023-04-09T11:23:37.204Z,1792.00
2023-04-09T11:24:37.200Z,2060.00
2023-04-09T11:25:37.137Z,868.00
2023-04-09T11:26:37.143Z,1740.00
2023-04-09T11:27:37.096Z,2112.00
2023-04-09T11:28:37.069Z,1536.00
2023-04-09T11:29:37.052Z,1324.00
2023-04-09T11:30:37.026Z,2140.00
2023-04-09T11:31:37.036Z,2204.00
2023-04-09T11:32:37.006Z,2204.00
2023-04-09T11:33:36.963Z,2208.00
2023-04-09T11:34:36.941Z,2260.00
2023-04-09T11:35:36.926Z,2172.00
2023-04-09T11:36:36.891Z,1020.00
2023-04-09T11:37:36.861Z,864.00
2023-04-09T11:38:36.844Z,864.00
2023-04-09T11:39:36.818Z,876.00
2023-04-09T11:40:36.821Z,944.00
2023-04-09T11:41:36.772Z,976.00
2023-04-09T11:42:36.750Z,960.00
2023-04-09T11:43:36.730Z,980.00
2023-04-09T11:44:36.709Z,1692.00
2023-04-09T11:45:36.681Z,1248.00
2023-04-09T11:46:36.720Z,1672.00
2023-04-09T11:47:36.669Z,2284.00
2023-04-09T11:48:36.620Z,2240.00
2023-04-09T11:49:36.594Z,2212.00
2023-04-09T11:50:36.573Z,2216.00
2023-04-09T11:51:36.540Z,1856.00
2023-04-09T11:52:36.529Z,1128.00
2023-04-09T11:53:36.501Z,816.00
2023-04-09T11:54:36.481Z,780.00
2023-04-09T11:55:36.474Z,784.00
2023-04-09T11:56:36.468Z,796.00
2023-04-09T11:57:36.404Z,824.00
2023-04-09T11:58:36.404Z,840.00
2023-04-09T11:59:36.363Z,856.00
2023-04-09T12:00:36.344Z,876.00
2023-04-09T12:01:36.390Z,912.00
2023-04-09T12:02:36.451Z,968.00
2023-04-09T12:03:36.387Z,1184.00
2023-04-09T12:04:36.369Z,2236.00
2023-04-09T12:05:36.594Z,2248.00
2023-04-09T12:06:36.211Z,2164.00
2023-04-09T12:07:36.176Z,2036.00
2023-04-09T12:08:36.168Z,2044.00
2023-04-09T12:09:36.135Z,916.00
2023-04-09T12:10:36.139Z,740.00
2023-04-09T12:11:36.090Z,708.00
2023-04-09T12:12:36.095Z,708.00
2023-04-09T12:13:36.048Z,752.00
2023-04-09T12:14:36.023Z,716.00
2023-04-09T12:15:36.038Z,1140.00
2023-04-09T12:16:36.017Z,1136.00
2023-04-09T12:17:35.946Z,1484.00
2023-04-09T12:18:35.933Z,1032.00
2023-04-09T12:19:35.907Z,1228.00
2023-04-09T12:20:35.888Z,2160.00
2023-04-09T12:21:35.859Z,1100.00
2023-04-09T12:22:35.841Z,2244.00
2023-04-09T12:23:35.816Z,1992.00
2023-04-09T12:24:35.800Z,1720.00
2023-04-09T12:25:35.787Z,996.00
2023-04-09T12:26:35.747Z,1332.00
2023-04-09T12:27:35.727Z,2004.00
2023-04-09T12:28:35.732Z,2212.00
2023-04-09T12:29:35.685Z,2228.00
2023-04-09T12:30:35.658Z,1388.00
2023-04-09T12:31:35.652Z,2208.00
2023-04-09T12:32:35.635Z,1896.00
2023-04-09T12:33:35.593Z,1032.00
2023-04-09T12:34:35.570Z,992.00
2023-04-09T12:35:35.558Z,900.00
2023-04-09T12:36:35.525Z,1264.00
2023-04-09T12:37:35.497Z,1248.00
2023-04-09T12:38:35.518Z,952.00
2023-04-09T12:39:35.455Z,920.00
2023-04-09T12:40:35.434Z,944.00